Time;durP1;ratioP1;P1;durP2;ratioP2;P2;SDS_P1;SDS_P2;PMS_P1;PMS_P2;Temp;Humidity;BMP_temperature;BMP_pressure;BME280_temperature;BME280_humidity;BME280_pressure;Samples;Min_cycle;Max_cycle;Signal;HPM_P1;HPM_P2
2022/01/19 00:01:26;;;;;;;138.43;38.03;;;;;;;1.71;100.00;102943.25;5040268;28;20049;-82
2022/01/19 00:03:52;;;;;;;143.55;39.63;;;;;;;1.66;100.00;102942.38;5004925;28;20033;-82
2022/01/19 00:06:18;;;;;;;117.85;36.03;;;;;;;1.61;100.00;102945.13;5027232;28;20053;-82
2022/01/19 00:08:44;;;;;;;144.32;38.80;;;;;;;1.51;100.00;102937.09;5031493;28;20051;-82
2022/01/19 00:11:09;;;;;;;146.45;35.95;;;;;;;1.55;100.00;102939.75;5036805;28;20033;-82
2022/01/19 00:13:35;;;;;;;157.82;37.78;;;;;;;1.65;100.00;102937.88;5023208;28;20029;-82
2022/01/19 00:16:01;;;;;;;145.50;37.25;;;;;;;1.53;100.00;102936.19;5021298;28;20034;-82
2022/01/19 00:18:26;;;;;;;145.70;38.15;;;;;;;1.52;100.00;102937.06;5025277;28;20048;-82
2022/01/19 00:20:54;;;;;;;111.78;33.92;;;;;;;1.45;100.00;102957.81;5038046;28;20056;-82
2022/01/19 00:23:20;;;;;;;137.38;35.85;;;;;;;1.40;100.00;102961.47;5039400;28;20096;-82
2022/01/19 00:25:51;;;;;;;136.07;36.05;;;;;;;1.46;100.00;102943.44;5039430;28;20033;-81
2022/01/19 00:28:17;;;;;;;134.98;37.25;;;;;;;1.38;100.00;102928.22;5040244;28;20044;-82
2022/01/19 00:30:43;;;;;;;162.85;37.30;;;;;;;1.35;100.00;102918.31;5034135;28;20037;-82
2022/01/19 00:33:09;;;;;;;139.52;36.85;;;;;;;1.33;100.00;102890.47;5023438;28;20053;-82
2022/01/19 00:35:36;;;;;;;129.75;36.35;;;;;;;1.42;100.00;102884.09;5040636;28;20037;-82
2022/01/19 00:38:02;;;;;;;146.30;38.22;;;;;;;1.32;100.00;102863.50;5040841;28;20494;-82
2022/01/19 00:40:28;;;;;;;129.52;35.60;;;;;;;1.28;100.00;102862.63;5043394;28;20021;-82
2022/01/19 00:42:54;;;;;;;128.75;37.00;;;;;;;1.33;100.00;102859.84;5041061;28;20032;-82
2022/01/19 00:45:21;;;;;;;129.23;34.03;;;;;;;1.10;100.00;102858.25;5019264;28;20030;-82
2022/01/19 00:47:46;;;;;;;123.32;35.35;;;;;;;1.14;100.00;102870.81;5020377;28;20030;-82
2022/01/19 00:50:15;;;;;;;141.68;36.70;;;;;;;1.20;100.00;102865.38;5039580;28;20256;-82
2022/01/19 00:52:41;;;;;;;139.43;38.15;;;;;;;1.20;100.00;102862.66;5034097;28;20037;-83
2022/01/19 00:55:10;;;;;;;153.82;38.13;;;;;;;1.16;100.00;102868.97;5030510;28;20492;-82
2022/01/19 00:57:35;;;;;;;147.68;36.88;;;;;;;1.14;100.00;102870.81;5044251;28;20516;-82
2022/01/19 01:00:04;;;;;;;154.45;36.58;;;;;;;0.99;100.00;102868.22;5055579;28;20032;-82
2022/01/19 01:02:31;;;;;;;145.40;36.95;;;;;;;1.04;100.00;102858.28;5041722;28;20018;-82
2022/01/19 01:04:57;;;;;;;147.68;35.08;;;;;;;0.89;100.00;102853.91;5042717;28;20025;-82
2022/01/19 01:07:22;;;;;;;148.75;36.53;;;;;;;0.83;100.00;102864.72;5027334;28;20048;-82
2022/01/19 01:09:48;;;;;;;125.80;33.67;;;;;;;0.84;100.00;102862.00;5044260;28;20056;-82
2022/01/19 01:12:21;;;;;;;118.45;34.03;;;;;;;0.90;100.00;102848.50;5043417;28;20026;-82
2022/01/19 01:18:18;;;;;;;134.95;34.83;;;;;;;0.74;100.00;102825.22;5056752;28;20044;-82
2022/01/19 01:20:18;;;;;;;109.57;32.65;;;;;;;0.73;100.00;102815.34;5043463;28;20056;-82
2022/01/19 01:22:44;;;;;;;137.32;36.90;;;;;;;0.73;100.00;102812.66;5039479;28;20051;-82
2022/01/19 01:25:10;;;;;;;161.43;38.58;;;;;;;0.90;100.00;102812.53;5043649;28;20045;-82
2022/01/19 01:27:35;;;;;;;144.70;38.47;;;;;;;0.75;100.00;102793.75;5037393;28;20064;-82
2022/01/19 01:30:01;;;;;;;145.07;39.10;;;;;;;0.81;100.00;102796.44;5037363;28;20064;-82
2022/01/19 01:32:27;;;;;;;144.15;37.45;;;;;;;0.75;100.00;102789.25;5022787;28;20469;-81
2022/01/19 01:34:53;;;;;;;147.55;38.05;;;;;;;0.67;100.00;102794.72;5025559;28;20021;-81
2022/01/19 01:37:19;;;;;;;132.80;36.38;;;;;;;0.80;100.00;102779.34;5028619;28;20045;-81
2022/01/19 01:39:45;;;;;;;141.60;38.83;;;;;;;0.69;100.00;102768.66;5032026;28;20113;-83
2022/01/19 01:42:13;;;;;;;156.25;38.03;;;;;;;0.73;100.00;102773.09;5015223;28;20040;-82
2022/01/19 01:44:43;;;;;;;120.43;35.40;;;;;;;0.77;100.00;102773.06;5035610;28;20091;-83
2022/01/19 01:47:10;;;;;;;144.60;35.72;;;;;;;0.58;100.00;102780.41;5029927;28;20033;-82
2022/01/19 01:55:04;;;;;;;126.40;34.78;;;;;;;0.33;100.00;102777.84;5041114;28;20029;-83
2022/01/19 01:57:30;;;;;;;112.97;33.33;;;;;;;0.52;100.00;102770.53;5037020;28;20053;-83
2022/01/19 01:59:56;;;;;;;123.35;33.47;;;;;;;0.54;100.00;102768.72;5021968;28;20426;-83
2022/01/19 02:02:22;;;;;;;105.22;32.20;;;;;;;0.31;100.00;102766.16;5018451;28;20033;-83
2022/01/19 02:04:48;;;;;;;124.22;34.38;;;;;;;0.25;100.00;102756.34;5024213;28;20474;-83
2022/01/19 02:07:40;;;;;;;134.35;34.45;;;;;;;0.39;100.00;102756.25;5011625;28;20098;-83
2022/01/19 02:10:16;;;;;;;142.02;35.45;;;;;;;0.39;100.00;102737.38;5023794;28;20057;-83
2022/01/19 02:23:47;;;;;;;144.18;37.22;;;;;;;0.52;100.00;102687.88;5039312;28;20037;-83
2022/01/19 02:26:20;;;;;;;141.27;38.83;;;;;;;0.50;100.00;102678.94;5022818;28;20030;-82
2022/01/19 02:29:04;;;;;;;151.05;38.03;;;;;;;0.48;100.00;102667.28;5024296;28;20052;-82
2022/01/19 02:31:54;;;;;;;138.50;35.60;;;;;;;0.56;100.00;102672.63;5027464;28;20128;-83
2022/01/19 02:40:33;;;;;;;141.25;38.50;;;;;;;0.35;100.00;102649.41;5053926;28;20025;-83
2022/01/19 02:51:02;;;;;;;174.07;40.67;;;;;;;0.72;100.00;102619.44;5039554;28;20033;-81
2022/01/19 02:53:28;;;;;;;164.48;40.47;;;;;;;0.76;100.00;102614.94;5041345;28;20041;-82
2022/01/19 02:55:54;;;;;;;169.40;39.72;;;;;;;0.58;100.00;102602.53;5042528;28;20469;-81
2022/01/19 02:58:23;;;;;;;163.05;37.92;;;;;;;0.63;100.00;102603.38;5025800;28;20026;-81
2022/01/19 03:08:54;;;;;;;137.85;38.13;;;;;;;0.51;100.00;102597.19;5041245;28;20048;-81
2022/01/19 03:11:21;;;;;;;146.52;37.88;;;;;;;0.46;100.00;102593.66;5032907;28;20030;-82
2022/01/19 03:13:48;;;;;;;155.55;39.13;;;;;;;0.52;100.00;102588.19;5041294;28;20092;-82
2022/01/19 03:16:16;;;;;;;148.70;39.67;;;;;;;0.51;100.00;102577.44;5041363;28;20033;-81
2022/01/19 03:18:41;;;;;;;150.93;40.10;;;;;;;0.69;100.00;102569.16;5041448;28;20029;-81
2022/01/19 03:21:07;;;;;;;158.38;42.75;;;;;;;0.88;100.00;102560.88;5023645;28;20148;-81
2022/01/19 03:23:33;;;;;;;151.00;40.50;;;;;;;1.04;100.00;102577.78;5028125;28;20022;-81
2022/01/19 03:26:04;;;;;;;145.13;38.40;;;;;;;1.05;100.00;102571.47;5038068;28;20044;-81
2022/01/19 03:28:29;;;;;;;145.48;40.28;;;;;;;1.01;100.00;102564.34;5027034;28;20065;-82
2022/01/19 03:30:55;;;;;;;156.70;38.85;;;;;;;1.18;100.00;102566.81;5040187;28;20064;-81
2022/01/19 03:33:20;;;;;;;138.90;38.85;;;;;;;1.20;100.00;102555.13;5031508;28;20398;-81
2022/01/19 03:35:46;;;;;;;134.05;37.80;;;;;;;1.27;100.00;102554.09;5039717;28;20496;-82
2022/01/19 03:38:12;;;;;;;137.85;38.97;;;;;;;1.28;100.00;102563.13;5039636;28;20033;-81
2022/01/19 03:40:39;;;;;;;146.63;38.63;;;;;;;1.25;100.00;102555.94;5018452;28;20024;-81
2022/01/19 03:43:05;;;;;;;130.93;39.20;;;;;;;1.27;100.00;102548.72;5033963;28;20460;-80
2022/01/19 03:45:33;;;;;;;146.77;38.63;;;;;;;1.14;100.00;102524.63;5035561;28;20629;-81
2022/01/19 03:48:22;;;;;;;134.35;40.70;;;;;;;1.23;100.00;102546.06;5024606;28;20053;-81
2022/01/19 03:50:49;;;;;;;144.48;37.20;;;;;;;1.20;100.00;102540.75;5015388;28;20026;-81
2022/01/19 03:53:14;;;;;;;133.02;36.92;;;;;;;1.14;100.00;102530.91;5035666;28;20033;-82
2022/01/19 03:55:40;;;;;;;130.20;38.53;;;;;;;1.08;100.00;102526.50;5034852;28;20038;-82
2022/01/19 03:58:05;;;;;;;142.73;37.72;;;;;;;1.07;100.00;102530.09;5020760;28;20030;-82
2022/01/19 04:00:34;;;;;;;147.38;41.05;;;;;;;1.03;100.00;102514.88;5016954;28;20021;-82
2022/01/19 04:03:01;;;;;;;141.43;40.53;;;;;;;1.01;100.00;102502.31;5040403;28;20036;-82
2022/01/19 04:05:40;;;;;;;149.40;42.65;;;;;;;1.05;100.00;102499.56;5040392;28;20029;-82
2022/01/19 04:08:06;;;;;;;133.88;42.15;;;;;;;0.99;100.00;102488.84;5022190;28;20063;-82
2022/01/19 04:10:31;;;;;;;150.60;42.42;;;;;;;1.04;100.00;102495.06;5041165;28;20026;-82
2022/01/19 04:13:09;;;;;;;139.00;40.58;;;;;;;1.02;100.00;102483.41;5040462;28;20460;-81
2022/01/19 04:15:38;;;;;;;147.27;42.63;;;;;;;1.06;100.00;102489.66;5040622;28;20037;-82
2022/01/19 04:18:04;;;;;;;155.00;41.63;;;;;;;1.04;100.00;102494.19;5020698;28;20036;-82
2022/01/19 04:20:33;;;;;;;161.13;42.17;;;;;;;1.04;100.00;102496.88;5013229;28;20026;-81
2022/01/19 04:22:59;;;;;;;169.23;44.47;;;;;;;1.05;100.00;102494.16;5040069;28;20033;-82
2022/01/19 04:25:24;;;;;;;147.60;43.72;;;;;;;0.98;100.00;102489.75;5039573;28;20395;-82
2022/01/19 04:27:50;;;;;;;170.98;46.65;;;;;;;1.07;100.00;102500.41;5035060;28;20037;-82
2022/01/19 04:30:16;;;;;;;165.85;45.47;;;;;;;1.06;100.00;102492.34;5021868;28;20100;-82
2022/01/19 04:35:17;;;;;;;181.38;45.08;;;;;;;1.05;100.00;102487.84;5046716;28;20084;-82
2022/01/19 04:39:06;;;;;;;171.10;43.20;;;;;;;1.12;100.00;102489.56;5022364;28;20393;-82
2022/01/19 04:48:59;;;;;;;177.68;44.15;;;;;;;1.19;100.00;102476.91;5039542;28;20369;-82
2022/01/19 05:02:50;;;;;;;170.50;43.65;;;;;;;1.02;100.00;102469.94;5027373;28;20159;-82
2022/01/19 05:05:18;;;;;;;152.70;42.33;;;;;;;1.02;100.00;102479.84;5040557;28;20053;-82
2022/01/19 05:15:19;;;;;;;159.00;41.15;;;;;;;0.91;100.00;102479.94;5038716;28;20057;-82
2022/01/19 05:17:45;;;;;;;180.05;46.50;;;;;;;0.86;100.00;102477.31;5040703;28;20026;-82
2022/01/19 05:20:11;;;;;;;153.98;38.10;;;;;;;0.89;100.00;102477.28;5039803;28;20048;-82
2022/01/19 05:22:37;;;;;;;160.45;42.90;;;;;;;0.95;100.00;102472.72;5024176;28;20032;-82
2022/01/19 05:25:03;;;;;;;182.00;43.42;;;;;;;0.83;100.00;102471.06;5020800;28;20030;-82
2022/01/19 05:27:29;;;;;;;174.73;45.28;;;;;;;0.78;100.00;102473.81;5039685;28;20472;-82
2022/01/19 05:29:54;;;;;;;179.57;43.38;;;;;;;0.79;100.00;102482.78;5018611;28;20037;-82
2022/01/19 05:32:20;;;;;;;179.57;44.40;;;;;;;0.77;100.00;102472.06;5039477;28;20104;-82
2022/01/19 05:34:46;;;;;;;173.40;45.75;;;;;;;0.83;100.00;102479.16;5042409;28;20029;-82
2022/01/19 05:37:11;;;;;;;172.27;42.33;;;;;;;0.90;100.00;102472.75;5024107;28;20648;-82
2022/01/19 05:39:37;;;;;;;157.63;42.38;;;;;;;0.87;100.00;102468.31;5040907;28;20112;-80
2022/01/19 05:42:03;;;;;;;160.15;43.13;;;;;;;0.97;100.00;102482.59;5041366;28;20084;-82
2022/01/19 05:44:29;;;;;;;178.82;43.55;;;;;;;0.96;100.00;102478.09;5043049;28;20042;-82
2022/01/19 05:46:54;;;;;;;175.60;43.42;;;;;;;0.91;100.00;102472.75;5043774;28;20548;-82
2022/01/19 05:49:19;;;;;;;159.10;38.95;;;;;;;0.98;100.00;102478.06;5044453;28;20030;-82
2022/01/19 05:51:47;;;;;;;164.55;43.00;;;;;;;0.97;100.00;102466.41;5028985;28;20044;-82
2022/01/19 05:54:13;;;;;;;159.77;42.35;;;;;;;1.02;100.00;102456.44;5044278;28;20041;-82
2022/01/19 05:56:38;;;;;;;164.30;41.40;;;;;;;1.00;100.00;102458.28;5042444;28;20461;-82
2022/01/19 05:59:03;;;;;;;156.07;41.45;;;;;;;1.07;100.00;102457.28;5023213;28;20381;-82
2022/01/19 06:01:29;;;;;;;151.77;40.13;;;;;;;1.03;100.00;102451.94;5036934;28;20454;-82
2022/01/19 06:03:54;;;;;;;150.02;40.38;;;;;;;1.12;100.00;102461.72;5040965;28;20096;-82
2022/01/19 06:06:20;;;;;;;162.05;42.55;;;;;;;1.09;100.00;102460.81;5045316;28;20049;-82
2022/01/19 06:08:48;;;;;;;152.52;39.85;;;;;;;1.13;100.00;102458.97;5032323;28;20418;-83
2022/01/19 06:11:16;;;;;;;145.40;39.03;;;;;;;1.16;100.00;102453.53;5039028;28;20033;-81
2022/01/19 06:13:41;;;;;;;141.20;38.22;;;;;;;1.12;100.00;102451.81;5045896;28;20065;-81
2022/01/19 06:16:06;;;;;;;151.85;40.50;;;;;;;1.09;100.00;102444.66;5038103;28;20087;-82
2022/01/19 06:18:32;;;;;;;146.80;40.42;;;;;;;1.15;100.00;102454.47;5019823;28;20033;-82
2022/01/19 06:20:57;;;;;;;137.82;36.88;;;;;;;1.16;100.00;102448.16;5016732;28;21828;-82
2022/01/19 06:23:23;;;;;;;148.45;39.25;;;;;;;1.18;100.00;102440.03;5046235;28;20041;-82
2022/01/19 06:25:48;;;;;;;137.13;38.03;;;;;;;1.20;100.00;102440.94;5039134;28;20064;-81
2022/01/19 06:28:14;;;;;;;131.60;37.40;;;;;;;1.17;100.00;102444.53;5036416;28;20032;-81
2022/01/19 06:30:40;;;;;;;131.20;36.97;;;;;;;1.24;100.00;102442.66;5026829;28;20454;-82
2022/01/19 06:33:06;;;;;;;128.75;37.10;;;;;;;1.18;100.00;102440.94;5042877;28;20029;-82
2022/01/19 06:35:32;;;;;;;137.18;35.85;;;;;;;1.23;100.00;102441.75;5043305;28;20025;-81
2022/01/19 06:37:58;;;;;;;139.55;37.50;;;;;;;1.31;100.00;102438.06;5038114;28;20061;-82
2022/01/19 06:40:26;;;;;;;137.63;41.95;;;;;;;1.23;100.00;102428.28;5041669;28;20104;-82
2022/01/19 06:42:53;;;;;;;150.45;39.42;;;;;;;1.26;100.00;102419.22;5041763;28;20030;-82
2022/01/19 06:45:19;;;;;;;156.25;40.38;;;;;;;1.31;100.00;102424.56;5020721;28;20026;-81
2022/01/19 06:47:44;;;;;;;132.45;37.63;;;;;;;1.31;100.00;102397.59;5044136;28;20103;-82
2022/01/19 06:50:12;;;;;;;149.52;39.45;;;;;;;1.27;100.00;102396.75;5029723;28;20081;-81
2022/01/19 06:52:38;;;;;;;126.85;35.63;;;;;;;1.25;100.00;102385.97;5010101;28;20123;-81
2022/01/19 06:55:05;;;;;;;141.25;37.20;;;;;;;1.36;100.00;102404.72;5027425;28;20045;-82
2022/01/19 06:57:30;;;;;;;135.32;37.15;;;;;;;1.36;100.00;102403.78;5023515;28;20121;-82
2022/01/19 06:59:56;;;;;;;143.48;37.63;;;;;;;1.39;100.00;102395.66;5034327;28;20064;-82
2022/01/19 07:02:21;;;;;;;128.02;36.60;;;;;;;1.41;100.00;102388.41;5041031;28;20037;-81
2022/01/19 07:04:49;;;;;;;124.55;35.78;;;;;;;1.41;100.00;102383.03;5039100;28;20085;-80
2022/01/19 07:07:19;;;;;;;133.82;36.22;;;;;;;1.45;100.00;102388.34;5034479;28;20038;-79
2022/01/19 07:09:45;;;;;;;122.72;37.25;;;;;;;1.47;100.00;102391.03;5037135;28;20040;-81
2022/01/19 07:12:12;;;;;;;115.25;33.97;;;;;;;1.49;100.00;102378.38;5037314;28;20030;-80
2022/01/19 07:14:38;;;;;;;129.00;35.85;;;;;;;1.46;100.00;102381.16;5038573;28;20074;-81
2022/01/19 07:17:04;;;;;;;128.20;37.38;;;;;;;1.47;100.00;102374.81;5023401;28;20120;-81
2022/01/19 07:19:29;;;;;;;120.57;34.88;;;;;;;1.47;100.00;102372.13;5039592;28;20365;-79
2022/01/19 07:21:55;;;;;;;116.20;36.80;;;;;;;1.53;100.00;102377.44;5033664;28;20037;-81
2022/01/19 07:24:21;;;;;;;116.82;34.28;;;;;;;1.51;100.00;102370.25;5039664;28;20032;-80
2022/01/19 07:26:47;;;;;;;127.30;36.35;;;;;;;1.61;100.00;102363.81;5041634;28;20033;-80
2022/01/19 07:29:16;;;;;;;121.72;35.05;;;;;;;1.58;100.00;102363.88;5012049;28;20065;-81
2022/01/19 07:31:42;;;;;;;124.60;34.00;;;;;;;1.60;100.00;102360.22;5024404;28;20421;-79
2022/01/19 07:34:08;;;;;;;121.18;33.63;;;;;;;1.61;100.00;102361.13;5038440;28;20044;-80
2022/01/19 07:36:35;;;;;;;123.68;36.35;;;;;;;1.60;100.00;102356.63;5039620;28;20040;-79
2022/01/19 07:39:00;;;;;;;114.35;33.03;;;;;;;1.65;100.00;102352.91;5019761;28;20121;-81
2022/01/19 07:41:26;;;;;;;125.20;35.45;;;;;;;1.70;100.00;102349.25;5020905;28;20049;-79
2022/01/19 07:43:51;;;;;;;125.53;35.60;;;;;;;1.68;100.00;102354.69;5016599;28;20524;-79
2022/01/19 07:46:17;;;;;;;115.57;32.33;;;;;;;1.72;100.00;102347.41;5030419;28;20116;-81
2022/01/19 07:48:43;;;;;;;120.90;34.50;;;;;;;1.75;100.00;102350.06;5038206;28;20136;-80
2022/01/19 07:51:08;;;;;;;122.22;34.60;;;;;;;1.81;100.00;102349.94;5036577;28;20041;-82
2022/01/19 07:53:34;;;;;;;98.93;31.65;;;;;;;1.79;100.00;102335.59;5023779;28;20037;-83
2022/01/19 07:56:00;;;;;;;116.13;33.60;;;;;;;1.83;100.00;102349.00;5028276;28;20044;-84
2022/01/19 07:58:25;;;;;;;119.93;36.45;;;;;;;1.87;100.00;102349.84;5033655;28;20581;-83
2022/01/19 08:00:51;;;;;;;109.95;34.10;;;;;;;1.87;100.00;102344.44;5042030;28;20033;-83
2022/01/19 08:03:16;;;;;;;112.13;32.88;;;;;;;1.90;100.00;102338.97;5034015;28;20068;-83
2022/01/19 08:05:42;;;;;;;112.05;33.22;;;;;;;1.94;100.00;102343.41;5025498;28;20056;-83
2022/01/19 08:08:07;;;;;;;114.57;34.00;;;;;;;2.00;100.00;102343.28;5036882;28;20038;-82
2022/01/19 08:10:33;;;;;;;111.45;33.58;;;;;;;2.00;100.00;102331.56;5024781;28;20037;-82
2022/01/19 08:13:01;;;;;;;109.28;31.73;;;;;;;2.09;100.00;102323.28;5032476;28;20107;-82
2022/01/19 08:15:27;;;;;;;107.20;33.28;;;;;;;2.11;100.00;102329.56;5042813;28;20042;-82
2022/01/19 08:17:52;;;;;;;95.78;31.73;;;;;;;2.16;100.00;102327.66;5018122;28;20081;-81
2022/01/19 08:20:18;;;;;;;100.22;31.75;;;;;;;2.18;100.00;102323.13;5040967;28;20029;-82
2022/01/19 08:22:44;;;;;;;103.60;31.60;;;;;;;2.27;100.00;102319.34;5023695;28;20033;-82
2022/01/19 08:25:10;;;;;;;107.88;32.28;;;;;;;2.27;100.00;102316.63;5025096;28;20075;-82
2022/01/19 08:27:36;;;;;;;107.57;32.80;;;;;;;2.29;100.00;102308.50;5033826;28;20041;-82
2022/01/19 08:30:03;;;;;;;105.80;32.00;;;;;;;2.41;100.00;102297.44;5041239;28;20421;-81
2022/01/19 08:32:35;;;;;;;100.72;32.55;;;;;;;2.45;100.00;102304.53;5007650;28;20104;-83
2022/01/19 08:35:02;;;;;;;101.90;32.65;;;;;;;2.45;100.00;102304.53;5039631;28;20124;-83
2022/01/19 08:37:27;;;;;;;98.90;32.67;;;;;;;2.47;100.00;102302.69;5038411;28;20033;-82
2022/01/19 08:39:53;;;;;;;101.45;31.90;;;;;;;2.50;100.00;102297.22;5037117;28;20053;-83
2022/01/19 08:42:18;;;;;;;105.22;32.38;;;;;;;2.51;100.00;102301.72;5046666;28;20524;-82
2022/01/19 08:44:44;;;;;;;101.50;32.42;;;;;;;2.50;100.00;102290.94;5026253;28;20060;-83
2022/01/19 08:47:09;;;;;;;115.80;33.00;;;;;;;2.55;100.00;102294.41;5037392;28;20033;-83
2022/01/19 08:49:35;;;;;;;96.45;31.50;;;;;;;2.56;100.00;102296.22;5015083;28;20040;-83
2022/01/19 08:52:03;;;;;;;108.03;33.35;;;;;;;2.61;100.00;102285.25;5024885;28;20030;-83
2022/01/19 08:54:29;;;;;;;102.57;31.13;;;;;;;2.57;100.00;102279.03;5028365;28;20109;-83
2022/01/19 08:56:54;;;;;;;104.32;30.48;;;;;;;2.70;100.00;102290.47;5027521;28;20061;-83
2022/01/19 08:59:20;;;;;;;96.28;31.73;;;;;;;2.71;100.00;102286.84;5021321;28;20037;-82
2022/01/19 09:01:46;;;;;;;93.88;30.85;;;;;;;2.70;100.00;102271.53;5023407;28;20034;-82
2022/01/19 09:04:12;;;;;;;90.80;31.23;;;;;;;2.75;100.00;102281.34;5036597;28;20090;-82
2022/01/19 09:06:37;;;;;;;91.63;30.08;;;;;;;2.75;100.00;102277.72;5037920;28;20041;-82
2022/01/19 09:09:03;;;;;;;99.65;30.95;;;;;;;2.78;100.00;102268.66;5040627;28;20032;-82
2022/01/19 09:11:28;;;;;;;92.13;28.70;;;;;;;2.79;100.00;102271.34;5039947;28;20184;-82
2022/01/19 09:13:54;;;;;;;89.60;30.15;;;;;;;2.85;100.00;102270.28;5022503;28;20088;-83
2022/01/19 09:16:19;;;;;;;86.07;28.30;;;;;;;2.83;100.00;102259.50;5036741;28;20057;-83
2022/01/19 09:18:45;;;;;;;88.50;28.73;;;;;;;2.89;100.00;102248.53;5034503;28;20045;-82
2022/01/19 09:21:10;;;;;;;91.35;30.15;;;;;;;2.93;100.00;102262.88;5034535;28;20037;-83
2022/01/19 09:23:37;;;;;;;92.50;29.52;;;;;;;2.92;100.00;102244.88;5035467;28;20109;-82
2022/01/19 09:26:04;;;;;;;87.20;26.90;;;;;;;2.93;100.00;102255.63;5040793;28;20481;-82
2022/01/19 09:28:30;;;;;;;85.47;28.52;;;;;;;2.99;100.00;102260.03;5042424;28;20033;-83
2022/01/19 09:31:00;;;;;;;82.68;28.23;;;;;;;2.98;100.00;102233.88;5044772;28;20042;-82
2022/01/19 09:33:29;;;;;;;88.05;27.80;;;;;;;3.04;100.00;102241.84;5041066;28;20052;-82
2022/01/19 09:38:33;;;;;;;86.97;27.20;;;;;;;3.09;100.00;102242.63;5042422;28;20862;-83
2022/01/19 09:40:59;;;;;;;76.68;26.60;;;;;;;3.09;100.00;102245.31;5043836;28;20037;-83
2022/01/19 09:43:25;;;;;;;91.22;27.65;;;;;;;3.10;100.00;102241.72;5040931;28;20120;-83
2022/01/19 09:45:55;;;;;;;82.28;28.45;;;;;;;3.14;100.00;102226.28;5044981;28;20109;-82
2022/01/19 09:48:21;;;;;;;71.32;25.13;;;;;;;3.15;100.00;102219.03;5032137;28;20488;-83
2022/01/19 09:50:47;;;;;;;82.07;28.98;;;;;;;3.23;100.00;102234.16;5027830;28;20034;-82
2022/01/19 09:53:13;;;;;;;77.90;26.77;;;;;;;3.23;100.00;102223.34;5035053;28;20094;-82
2022/01/19 09:55:40;;;;;;;77.30;25.75;;;;;;;3.28;100.00;102221.41;5018789;28;20168;-83
2022/01/19 09:58:07;;;;;;;78.13;27.02;;;;;;;3.24;100.00;102218.81;5023833;28;20045;-83
2022/01/19 10:00:33;;;;;;;82.35;26.17;;;;;;;3.26;100.00;102215.16;5033956;28;20029;-81
2022/01/19 10:03:18;;;;;;;92.30;28.52;;;;;;;3.27;100.00;102218.72;5027157;28;20059;-82
2022/01/19 10:05:55;;;;;;;78.63;25.90;;;;;;;3.21;100.00;102213.47;5044440;28;20048;-83
2022/01/19 10:08:32;;;;;;;82.22;27.35;;;;;;;3.27;100.00;102207.91;5042980;28;20056;-83
2022/01/19 10:11:11;;;;;;;82.03;26.42;;;;;;;3.21;100.00;102195.41;5033622;28;20045;-83
2022/01/19 10:17:01;;;;;;;80.43;26.20;;;;;;;3.36;100.00;102187.81;5040227;28;20081;-83
2022/01/19 10:19:29;;;;;;;85.07;27.17;;;;;;;3.32;100.00;102178.88;5031225;28;20033;-82
2022/01/19 10:22:07;;;;;;;77.13;28.15;;;;;;;3.37;100.00;102185.06;5024212;28;20034;-83
2022/01/19 10:24:52;;;;;;;84.70;26.95;;;;;;;3.39;100.00;102196.72;5043282;28;20044;-83
2022/01/19 10:27:21;;;;;;;80.10;28.13;;;;;;;3.37;100.00;102190.47;5040439;28;20029;-81
2022/01/19 10:29:53;;;;;;;93.80;31.75;;;;;;;3.35;100.00;102183.34;5024636;28;20076;-82
2022/01/19 10:32:23;;;;;;;88.00;30.17;;;;;;;3.38;100.00;102186.84;5040869;28;20038;-82
2022/01/19 10:34:49;;;;;;;90.43;30.85;;;;;;;3.42;100.00;102179.53;5039985;28;20025;-81
2022/01/19 10:37:25;;;;;;;87.80;30.33;;;;;;;3.41;100.00;102167.81;5026634;28;20040;-82
2022/01/19 10:39:54;;;;;;;93.28;30.60;;;;;;;3.41;100.00;102164.19;5047145;28;20030;-82
2022/01/19 10:42:21;;;;;;;82.88;28.85;;;;;;;3.87;100.00;102162.91;5025459;28;20029;-81
2022/01/19 10:44:51;;;;;;;83.20;29.27;;;;;;;3.37;100.00;102130.91;5044685;28;20033;-81
2022/01/19 10:47:17;;;;;;;85.43;28.63;;;;;;;3.41;100.00;102151.56;5045116;28;20025;-82
2022/01/19 10:49:52;;;;;;;92.18;29.02;;;;;;;3.46;100.00;102155.03;5028357;28;20025;-82
2022/01/19 10:52:33;;;;;;;93.32;30.15;;;;;;;3.59;100.00;102146.53;5043121;28;20045;-82
2022/01/19 10:55:01;;;;;;;92.40;31.33;;;;;;;3.52;100.00;102148.53;5024060;28;20432;-81
2022/01/19 10:57:29;;;;;;;94.22;30.15;;;;;;;3.53;100.00;102150.34;5041554;28;20029;-82
2022/01/19 11:00:14;;;;;;;92.10;29.52;;;;;;;3.54;100.00;102156.63;5035947;28;20051;-81
2022/01/19 11:02:40;;;;;;;99.03;31.23;;;;;;;3.50;100.00;102148.59;5043224;28;20033;-82
2022/01/19 11:05:06;;;;;;;87.53;31.65;;;;;;;3.46;100.00;102143.28;5026239;28;20053;-82
2022/01/19 11:07:31;;;;;;;94.13;33.33;;;;;;;3.44;100.00;102137.03;5043951;28;20037;-82
2022/01/19 11:10:01;;;;;;;90.18;32.05;;;;;;;3.81;100.00;102130.56;5028546;28;20081;-82
2022/01/19 11:12:30;;;;;;;94.63;33.53;;;;;;;3.46;100.00;102109.00;5043520;28;20045;-83
2022/01/19 11:14:56;;;;;;;99.43;33.55;;;;;;;3.52;100.00;102126.88;5039623;28;20091;-82
2022/01/19 11:17:22;;;;;;;92.25;32.13;;;;;;;3.44;100.00;102118.09;5041811;28;20485;-82
2022/01/19 11:19:49;;;;;;;98.15;32.83;;;;;;;3.54;100.00;102122.31;5038611;28;20018;-82
2022/01/19 11:22:49;;;;;;;94.38;31.80;;;;;;;3.53;100.00;102120.53;5038225;28;20128;-82
2022/01/19 11:25:59;;;;;;;88.97;29.80;;;;;;;3.54;100.00;102113.28;5023967;28;20063;-82
2022/01/19 11:28:27;;;;;;;93.72;32.22;;;;;;;3.49;100.00;102095.38;5024351;28;20108;-83
2022/01/19 11:30:53;;;;;;;92.72;32.22;;;;;;;3.48;100.00;102093.59;5040324;28;20121;-81
2022/01/19 11:33:26;;;;;;;90.85;32.28;;;;;;;3.52;100.00;102080.84;5019563;28;20030;-80
2022/01/19 11:35:55;;;;;;;106.53;34.95;;;;;;;3.50;100.00;102085.44;5038255;28;20057;-80
2022/01/19 11:38:41;;;;;;;101.50;36.38;;;;;;;3.54;100.00;102065.44;5031331;28;20025;-80
2022/01/19 11:41:06;;;;;;;93.97;33.33;;;;;;;3.55;100.00;102082.59;5043375;28;20026;-81
2022/01/19 11:43:33;;;;;;;101.30;35.25;;;;;;;3.58;100.00;102072.56;5030391;28;20041;-81
2022/01/19 11:46:00;;;;;;;107.55;35.05;;;;;;;3.50;100.00;102063.78;5038279;28;20056;-83
2022/01/19 11:48:28;;;;;;;93.43;32.75;;;;;;;3.53;100.00;102074.50;5026958;28;20046;-82
2022/01/19 11:51:05;;;;;;;107.45;35.85;;;;;;;3.56;100.00;102076.22;5028746;28;20168;-83
2022/01/19 11:54:01;;;;;;;103.18;33.78;;;;;;;3.57;100.00;102065.34;5019194;28;20112;-84
2022/01/19 11:56:27;;;;;;;101.18;34.45;;;;;;;3.59;100.00;102049.97;5015248;28;20029;-83
2022/01/19 11:59:08;;;;;;;106.70;35.15;;;;;;;3.57;100.00;102048.22;5038519;28;20021;-82
2022/01/19 12:01:34;;;;;;;107.40;35.08;;;;;;;3.55;100.00;102040.16;5038084;28;20048;-81
2022/01/19 12:04:18;;;;;;;110.05;35.15;;;;;;;3.57;100.00;102030.16;5041610;28;20021;-80
2022/01/19 12:06:46;;;;;;;104.88;35.85;;;;;;;3.56;100.00;102030.19;5042882;28;20041;-80
2022/01/19 12:09:13;;;;;;;113.38;36.30;;;;;;;3.53;100.00;102023.06;5021847;28;20049;-81
2022/01/19 12:11:52;;;;;;;107.40;35.50;;;;;;;3.55;100.00;102014.91;5023312;28;20040;-80
2022/01/19 12:14:22;;;;;;;113.80;37.70;;;;;;;3.52;100.00;101998.75;5036366;28;20037;-80
2022/01/19 12:17:26;;;;;;;115.13;30.67;;;;;;;3.52;100.00;102007.75;5026482;28;20465;-80
2022/01/19 12:19:43;;;;;;;110.93;37.53;;;;;;;3.58;100.00;102007.56;5042225;28;20057;-80
2022/01/19 12:22:12;;;;;;;118.82;38.40;;;;;;;3.55;100.00;102007.66;5025171;28;20106;-80
2022/01/19 12:24:44;;;;;;;123.55;38.60;;;;;;;3.57;100.00;102000.34;5043478;28;20033;-79
2022/01/19 12:27:13;;;;;;;116.07;39.55;;;;;;;3.54;100.00;101992.31;5032737;28;20049;-80